Time;durP1;ratioP1;P1;durP2;ratioP2;P2;SDS_P1;SDS_P2;PMS_P1;PMS_P2;Temp;Humidity;BMP_temperature;BMP_pressure;BME280_temperature;BME280_humidity;BME280_pressure;Samples;Min_cycle;Max_cycle;Signal;HPM_P1;HPM_P2
2021/07/08 00:01:41;;;;;;;1.77;1.60;;;22.20;91.30;;;;;;4993197;28;20425;-44
2021/07/08 00:04:07;;;;;;;1.67;1.55;;;;;;;;;;4992823;28;20048;-44
2021/07/08 00:06:33;;;;;;;4.10;1.90;;;;;;;;;;4993074;28;20117;-44
2021/07/08 00:08:59;;;;;;;4.60;1.98;;;;;;;;;;4992760;28;20541;-44
2021/07/08 00:11:26;;;;;;;3.50;1.80;;;22.20;92.10;;;;;;4992893;28;20118;-44
2021/07/08 00:13:52;;;;;;;1.95;1.55;;;;;;;;;;4994550;28;20500;-44
2021/07/08 00:16:18;;;;;;;2.28;1.70;;;;;;;;;;4996672;28;20027;-44
2021/07/08 00:18:44;;;;;;;2.95;1.63;;;;;;;;;;4996331;28;20512;-44
2021/07/08 00:21:10;;;;;;;1.70;1.60;;;;;;;;;;4996305;28;20033;-44
2021/07/08 00:23:36;;;;;;;2.92;1.50;;;;;;;;;;4996515;28;20022;-44
2021/07/08 00:26:02;;;;;;;2.75;1.95;;;;;;;;;;4996467;28;20034;-44
2021/07/08 00:28:28;;;;;;;1.90;1.73;;;;;;;;;;4996446;28;20046;-44
2021/07/08 00:30:54;;;;;;;2.70;1.55;;;;;;;;;;4996296;28;20362;-44
2021/07/08 00:33:21;;;;;;;2.15;1.92;;;22.10;92.60;;;;;;4996044;28;20037;-44
2021/07/08 00:35:48;;;;;;;1.60;1.50;;;22.20;91.60;;;;;;4996048;28;20018;-44
2021/07/08 00:38:14;;;;;;;2.70;1.75;;;;;;;;;;4996271;28;20026;-44
2021/07/08 00:40:40;;;;;;;3.28;2.10;;;;;;;;;;4995950;28;20035;-44
2021/07/08 00:43:07;;;;;;;2.83;1.75;;;22.20;91.70;;;;;;4995887;28;20210;-44
2021/07/08 00:45:34;;;;;;;2.67;1.92;;;22.20;87.30;;;;;;4996224;28;20030;-44
2021/07/08 00:48:00;;;;;;;2.75;1.42;;;;;;;;;;4996151;28;20026;-44
2021/07/08 00:50:33;;;;;;;3.88;1.58;;;22.10;92.60;;;;;;4995868;28;20028;-44
2021/07/08 00:52:59;;;;;;;2.90;1.40;;;;;;;;;;4995713;28;20027;-45
2021/07/08 00:55:25;;;;;;;3.08;1.55;;;;;;;;;;4996014;28;20054;-44
2021/07/08 00:57:54;;;;;;;2.33;1.70;;;;;;;;;;4995887;28;20084;-44
2021/07/08 01:00:24;;;;;;;1.52;1.42;;;22.00;90.80;;;;;;4995870;28;20022;-44
2021/07/08 01:02:50;;;;;;;1.98;1.35;;;;;;;;;;4995516;28;20100;-44
2021/07/08 01:05:17;;;;;;;3.92;1.70;;;22.10;89.90;;;;;;4995391;28;20050;-44
2021/07/08 01:07:44;;;;;;;3.03;1.83;;;;;;;;;;4995472;28;20531;-44
2021/07/08 01:10:10;;;;;;;1.90;1.60;;;;;;;;;;4995673;28;20062;-46
2021/07/08 01:12:37;;;;;;;1.83;1.70;;;;;;;;;;4995577;28;20412;-45
2021/07/08 01:15:05;;;;;;;3.35;1.85;;;22.00;88.40;;;;;;4995687;28;20034;-44
2021/07/08 01:17:31;;;;;;;1.65;1.55;;;;;;;;;;4995704;28;20019;-44
2021/07/08 01:19:57;;;;;;;2.97;2.00;;;;;;;;;;4995483;28;20049;-44
2021/07/08 01:22:23;;;;;;;3.13;2.08;;;;;;;;;;4995234;28;20023;-44
2021/07/08 01:24:49;;;;;;;1.50;1.40;;;;;;;;;;4995430;28;20026;-43
2021/07/08 01:27:15;;;;;;;2.97;1.63;;;;;;;;;;4995187;28;20106;-45
2021/07/08 01:29:41;;;;;;;3.15;1.92;;;;;;;;;;4995107;28;20157;-44
2021/07/08 01:32:07;;;;;;;2.28;1.48;;;;;;;;;;4994951;28;20473;-44
2021/07/08 01:34:34;;;;;;;2.80;1.42;;;;;;;;;;4995277;28;20080;-44
2021/07/08 01:37:00;;;;;;;3.20;1.67;;;;;;;;;;4995190;28;20034;-44
2021/07/08 01:39:26;;;;;;;2.00;1.77;;;;;;;;;;4995184;28;20472;-44
2021/07/08 01:41:52;;;;;;;1.67;1.48;;;;;;;;;;4994921;28;20117;-44
2021/07/08 01:44:18;;;;;;;2.22;1.67;;;;;;;;;;4994713;28;20108;-44
2021/07/08 01:46:44;;;;;;;2.00;1.67;;;22.00;83.70;;;;;;4995012;28;20052;-44
2021/07/08 01:49:10;;;;;;;4.22;1.67;;;22.00;84.60;;;;;;4994839;28;20193;-44
2021/07/08 01:51:36;;;;;;;2.28;1.70;;;;;;;;;;4994772;28;20052;-43
2021/07/08 01:54:04;;;;;;;1.80;1.42;;;22.10;87.10;;;;;;4977322;28;20396;-45
2021/07/08 01:56:32;;;;;;;2.50;1.60;;;;;;;;;;4994551;28;20026;-44
2021/07/08 01:58:58;;;;;;;2.47;1.33;;;;;;;;;;4994833;28;20042;-47
2021/07/08 02:01:24;;;;;;;2.20;1.60;;;;;;;;;;4994797;28;20057;-43
2021/07/08 02:03:51;;;;;;;2.08;1.85;;;;;;;;;;4994189;28;20046;-45
2021/07/08 02:06:17;;;;;;;2.63;1.85;;;;;;;;;;4994457;28;20118;-44
2021/07/08 02:08:43;;;;;;;1.45;1.35;;;22.00;84.30;;;;;;4994611;28;20026;-44
2021/07/08 02:11:10;;;;;;;3.13;1.48;;;21.90;84.80;;;;;;4994354;28;20042;-45
2021/07/08 02:13:39;;;;;;;2.33;1.35;;;22.30;87.20;;;;;;4994607;28;20022;-44
2021/07/08 02:16:06;;;;;;;4.05;1.67;;;21.90;85.50;;;;;;4994251;28;20161;-44
2021/07/08 02:18:33;;;;;;;3.60;1.80;;;;;;;;;;4994554;28;20381;-44
2021/07/08 02:20:59;;;;;;;2.88;1.85;;;;;;;;;;4994082;28;20058;-44
2021/07/08 02:23:25;;;;;;;2.17;1.75;;;;;;;;;;4994059;28;20116;-44
2021/07/08 02:25:51;;;;;;;1.77;1.67;;;;;;;;;;4994052;28;20026;-44
2021/07/08 02:28:17;;;;;;;1.85;1.38;;;;;;;;;;4994227;28;20106;-44
2021/07/08 02:30:43;;;;;;;1.80;1.70;;;;;;;;;;4993809;28;20033;-44
2021/07/08 02:33:09;;;;;;;2.72;1.58;;;;;;;;;;4994107;28;20030;-44
2021/07/08 02:35:35;;;;;;;1.77;1.60;;;;;;;;;;4993494;28;20033;-43
2021/07/08 02:38:01;;;;;;;2.45;1.45;;;;;;;;;;4994141;28;20022;-43
2021/07/08 02:40:33;;;;;;;2.60;1.58;;;21.90;83.10;;;;;;4994015;28;20018;-44
2021/07/08 02:43:00;;;;;;;2.40;1.50;;;21.80;84.80;;;;;;4993785;28;20479;-43
2021/07/08 02:45:28;;;;;;;2.53;1.60;;;21.90;83.80;;;;;;4993759;28;20018;-43
2021/07/08 02:47:55;;;;;;;2.88;1.50;;;;;;;;;;4992386;28;20022;-44
2021/07/08 02:50:22;;;;;;;2.42;1.33;;;22.00;81.60;;;;;;4993519;28;20060;-45
2021/07/08 02:52:49;;;;;;;3.10;1.80;;;21.90;81.10;;;;;;4993528;28;20070;-43
2021/07/08 02:55:15;;;;;;;1.92;1.52;;;;;;;;;;4993835;28;20034;-44
2021/07/08 02:57:41;;;;;;;2.95;1.77;;;;;;;;;;4993742;28;20035;-46
2021/07/08 03:00:10;;;;;;;1.65;1.42;;;21.90;84.70;;;;;;4993760;28;20023;-43
2021/07/08 03:02:36;;;;;;;1.60;1.50;;;;;;;;;;4993711;28;20022;-45
2021/07/08 03:05:04;;;;;;;2.22;1.65;;;21.90;85.00;;;;;;4993295;28;20089;-44
2021/07/08 03:07:30;;;;;;;1.60;1.50;;;;;;;;;;4993368;28;20048;-44
2021/07/08 03:09:56;;;;;;;1.48;1.33;;;;;;;;;;4993576;28;20022;-44
2021/07/08 03:12:22;;;;;;;3.55;1.60;;;;;;;;;;4993557;28;20034;-44
2021/07/08 03:14:48;;;;;;;2.72;1.60;;;;;;;;;;4993233;28;20459;-44
2021/07/08 03:17:14;;;;;;;2.15;1.50;;;;;;;;;;4993509;28;20032;-44
2021/07/08 03:19:39;;;;;;;1.60;1.20;;;;;;;;;;4993516;28;20454;-45
2021/07/08 03:22:06;;;;;;;1.60;1.48;;;;;;;;;;4993066;28;20030;-43
2021/07/08 03:24:32;;;;;;;2.92;1.50;;;;;;;;;;4993163;28;20109;-43
2021/07/08 03:26:58;;;;;;;1.70;1.60;;;;;;;;;;4993398;28;20065;-44
2021/07/08 03:29:24;;;;;;;1.55;1.20;;;;;;;;;;4993146;28;20030;-45
2021/07/08 03:31:50;;;;;;;1.35;1.25;;;;;;;;;;4993364;28;20046;-44
2021/07/08 03:34:15;;;;;;;2.58;1.65;;;;;;;;;;4993353;28;20417;-43
2021/07/08 03:36:42;;;;;;;3.22;1.40;;;;;;;;;;4993341;28;20026;-44
2021/07/08 03:39:08;;;;;;;3.63;1.70;;;;;;;;;;4993358;28;20019;-43
2021/07/08 03:41:34;;;;;;;1.90;1.45;;;;;;;;;;4993196;28;20031;-44
2021/07/08 03:44:00;;;;;;;2.03;1.60;;;;;;;;;;4993393;28;20389;-44
2021/07/08 03:46:26;;;;;;;2.22;1.58;;;;;;;;;;4993220;28;20026;-44
2021/07/08 03:48:52;;;;;;;2.35;1.75;;;;;;;;;;4995302;28;20490;-44
2021/07/08 03:51:18;;;;;;;2.58;1.58;;;;;;;;;;4996611;28;20027;-45
2021/07/08 03:53:44;;;;;;;1.48;1.38;;;;;;;;;;4997102;28;20038;-46
2021/07/08 03:56:10;;;;;;;2.72;1.70;;;;;;;;;;4996854;28;20019;-46
2021/07/08 03:58:36;;;;;;;2.35;1.67;;;;;;;;;;4996756;28;20026;-46
2021/07/08 04:01:03;;;;;;;2.90;1.60;;;;;;;;;;4996769;28;20027;-44
2021/07/08 04:03:29;;;;;;;2.65;1.70;;;;;;;;;;4996406;28;20057;-44
2021/07/08 04:05:55;;;;;;;2.25;1.50;;;;;;;;;;4996533;28;20027;-43
2021/07/08 04:08:21;;;;;;;1.80;1.30;;;;;;;;;;4996847;28;20034;-44
2021/07/08 04:10:47;;;;;;;1.42;1.15;;;;;;;;;;4996470;28;20458;-44
2021/07/08 04:13:16;;;;;;;3.30;1.73;;;21.90;93.00;;;;;;4996766;28;20023;-44
2021/07/08 04:15:42;;;;;;;2.03;1.45;;;;;;;;;;4996376;28;20019;-44
2021/07/08 04:18:09;;;;;;;1.58;1.20;;;;;;;;;;4996645;28;20053;-43
2021/07/08 04:20:35;;;;;;;2.40;1.70;;;21.90;91.60;;;;;;4996603;28;20461;-44
2021/07/08 04:23:01;;;;;;;1.75;1.30;;;;;;;;;;4996896;28;20026;-44
2021/07/08 04:25:27;;;;;;;1.70;1.60;;;;;;;;;;4996510;28;20100;-43
2021/07/08 04:27:53;;;;;;;2.85;1.33;;;;;;;;;;4996457;28;20065;-46
2021/07/08 04:30:21;;;;;;;1.60;1.20;;;21.70;92.20;;;;;;4996394;28;20018;-43
2021/07/08 04:32:48;;;;;;;1.88;1.67;;;21.80;91.20;;;;;;4996325;28;20371;-44
2021/07/08 04:35:18;;;;;;;2.65;1.58;;;;;;;;;;4996336;28;20024;-44
2021/07/08 04:37:45;;;;;;;1.77;1.67;;;;;;;;;;4996284;28;20030;-43
2021/07/08 04:40:18;;;;;;;1.60;1.35;;;;;;;;;;4996278;28;20105;-43
2021/07/08 04:42:45;;;;;;;2.50;1.80;;;;;;;;;;4995913;28;20034;-44
2021/07/08 04:45:11;;;;;;;1.98;1.30;;;;;;;;;;4996150;28;20031;-43
2021/07/08 04:47:38;;;;;;;3.65;1.42;;;;;;;;;;4995970;28;20035;-44
2021/07/08 04:50:05;;;;;;;2.28;1.35;;;21.80;91.80;;;;;;4996056;28;20038;-44
2021/07/08 04:52:31;;;;;;;2.00;1.42;;;;;;;;;;4995886;28;20478;-44
2021/07/08 04:54:57;;;;;;;1.83;1.38;;;;;;;;;;4995932;28;20432;-43
2021/07/08 04:57:23;;;;;;;1.55;1.08;;;;;;;;;;4995958;28;20029;-45
2021/07/08 04:59:49;;;;;;;1.98;1.55;;;;;;;;;;4995106;28;20056;-44
2021/07/08 05:02:15;;;;;;;1.92;1.60;;;;;;;;;;4995889;28;20101;-44
2021/07/08 05:04:41;;;;;;;1.33;1.20;;;;;;;;;;4995388;28;20414;-44
2021/07/08 05:07:07;;;;;;;1.85;1.48;;;;;;;;;;4995710;28;20025;-44
2021/07/08 05:09:33;;;;;;;4.65;1.75;;;;;;;;;;4995666;28;20046;-44
2021/07/08 05:11:59;;;;;;;3.97;1.30;;;;;;;;;;4995296;28;20042;-43
2021/07/08 05:14:25;;;;;;;2.88;1.73;;;;;;;;;;4995329;28;20023;-44
2021/07/08 05:16:51;;;;;;;1.42;1.33;;;;;;;;;;4995220;28;20038;-46
2021/07/08 05:19:17;;;;;;;2.78;1.35;;;;;;;;;;4995512;28;20425;-46
2021/07/08 05:21:49;;;;;;;2.20;1.10;;;21.70;95.90;;;;;;4995534;28;20476;-47
2021/07/08 05:24:20;;;;;;;1.70;1.55;;;;;;;;;;4995550;28;20031;-44
2021/07/08 05:26:46;;;;;;;2.30;1.45;;;;;;;;;;4995235;28;20031;-44
2021/07/08 05:29:12;;;;;;;1.95;1.30;;;;;;;;;;4995357;28;20077;-45
2021/07/08 05:31:38;;;;;;;1.20;1.10;;;;;;;;;;4995247;28;20088;-43
2021/07/08 05:34:04;;;;;;;2.50;1.25;;;;;;;;;;4995069;28;20474;-44
2021/07/08 05:36:30;;;;;;;2.20;1.55;;;;;;;;;;4994967;28;20118;-44
2021/07/08 05:38:56;;;;;;;2.10;1.35;;;;;;;;;;4994964;28;20022;-43
2021/07/08 05:41:22;;;;;;;2.35;1.40;;;;;;;;;;4994849;28;20054;-44
2021/07/08 05:43:48;;;;;;;1.85;1.50;;;;;;;;;;4994747;28;20042;-44
2021/07/08 05:46:14;;;;;;;1.70;1.25;;;;;;;;;;4994979;28;20035;-43
2021/07/08 05:48:40;;;;;;;1.65;1.30;;;;;;;;;;4994989;28;20053;-43
2021/07/08 05:51:06;;;;;;;2.38;1.70;;;;;;;;;;4994743;28;20038;-43
2021/07/08 05:53:32;;;;;;;3.10;1.92;;;;;;;;;;4994800;28;20504;-43
2021/07/08 05:55:58;;;;;;;2.47;1.48;;;;;;;;;;4994829;28;20035;-43
2021/07/08 05:58:24;;;;;;;5.05;1.63;;;;;;;;;;4994787;28;20033;-43
2021/07/08 06:00:50;;;;;;;4.30;1.50;;;;;;;;;;4994320;28;20034;-44
2021/07/08 06:03:17;;;;;;;4.07;1.60;;;;;;;;;;4994461;28;20033;-43
2021/07/08 06:05:43;;;;;;;2.83;1.67;;;21.80;91.90;;;;;;4994775;28;20026;-43
2021/07/08 06:08:09;;;;;;;2.10;1.63;;;;;;;;;;4994466;28;20027;-43
2021/07/08 06:10:35;;;;;;;2.45;1.05;;;;;;;;;;4993629;28;20026;-44
2021/07/08 06:13:02;;;;;;;2.60;1.52;;;;;;;;;;4994237;28;20034;-44
2021/07/08 06:15:28;;;;;;;1.98;1.23;;;;;;;;;;4994518;28;20027;-44
2021/07/08 06:17:54;;;;;;;1.67;1.58;;;;;;;;;;4994396;28;20046;-44
2021/07/08 06:20:20;;;;;;;2.63;1.40;;;;;;;;;;4994276;28;20437;-44
2021/07/08 06:22:46;;;;;;;6.40;2.00;;;;;;;;;;4994270;28;20493;-46
2021/07/08 06:25:13;;;;;;;1.88;1.42;;;21.80;90.20;;;;;;4994176;28;20397;-45
2021/07/08 06:27:39;;;;;;;1.80;1.70;;;;;;;;;;4993981;28;20366;-45
2021/07/08 06:30:07;;;;;;;2.45;1.30;;;21.80;90.70;;;;;;4993970;28;20030;-44
2021/07/08 06:32:33;;;;;;;2.53;1.52;;;;;;;;;;4994180;28;20038;-44
2021/07/08 06:34:59;;;;;;;2.17;1.20;;;;;;;;;;4994252;28;20034;-46
2021/07/08 06:37:26;;;;;;;2.95;1.38;;;;;;;;;;4994120;28;20022;-49
2021/07/08 06:39:53;;;;;;;3.20;1.50;;;;;;;;;;4994189;28;20450;-44
2021/07/08 06:42:19;;;;;;;3.00;1.30;;;;;;;;;;4994187;28;20040;-43
2021/07/08 06:44:45;;;;;;;2.35;1.40;;;;;;;;;;4993799;28;20022;-43
2021/07/08 06:47:16;;;;;;;1.70;1.58;;;;;;;;;;4993644;28;20489;-44
2021/07/08 06:49:43;;;;;;;1.92;1.67;;;;;;;;;;4993646;28;20030;-45
2021/07/08 06:52:09;;;;;;;3.72;1.52;;;;;;;;;;4993880;28;20042;-44
2021/07/08 06:54:35;;;;;;;1.60;1.33;;;;;;;;;;4993500;28;20030;-43
2021/07/08 06:57:01;;;;;;;3.92;1.63;;;;;;;;;;4993676;28;20042;-43
2021/07/08 06:59:27;;;;;;;3.42;1.35;;;;;;;;;;4993829;28;20034;-45
2021/07/08 07:01:53;;;;;;;2.30;1.40;;;;;;;;;;4993739;28;20080;-44
2021/07/08 07:04:20;;;;;;;1.77;1.20;;;;;;;;;;4993339;28;20050;-44
2021/07/08 07:06:46;;;;;;;2.35;1.25;;;;;;;;;;4993821;28;20068;-43
2021/07/08 07:09:12;;;;;;;2.72;1.35;;;;;;;;;;4993396;28;20031;-43
2021/07/08 07:11:38;;;;;;;2.17;1.50;;;;;;;;;;4993563;28;20035;-44
2021/07/08 07:14:04;;;;;;;1.73;1.63;;;;;;;;;;4993349;28;20031;-46
2021/07/08 07:16:30;;;;;;;1.98;1.55;;;;;;;;;;4992118;28;20319;-44
2021/07/08 07:18:56;;;;;;;1.98;1.63;;;;;;;;;;4993133;28;20277;-44
2021/07/08 07:21:22;;;;;;;3.53;1.30;;;;;;;;;;4993165;28;20117;-44
2021/07/08 07:23:49;;;;;;;1.20;1.05;;;;;;;;;;4993249;28;20022;-44
2021/07/08 07:26:16;;;;;;;1.83;1.23;;;;;;;;;;4993538;28;20030;-44
2021/07/08 07:28:42;;;;;;;2.25;1.52;;;;;;;;;;4993570;28;20026;-44
2021/07/08 07:31:08;;;;;;;3.65;2.08;;;;;;;;;;4993052;28;20026;-47
2021/07/08 07:33:34;;;;;;;1.17;1.08;;;;;;;;;;4993434;28;20030;-44
2021/07/08 07:36:00;;;;;;;1.52;1.30;;;;;;;;;;4993262;28;20022;-44
2021/07/08 07:38:26;;;;;;;1.40;1.30;;;;;;;;;;4992883;28;20442;-44
2021/07/08 07:40:52;;;;;;;1.90;1.67;;;;;;;;;;4993029;28;20029;-45
2021/07/08 07:43:18;;;;;;;2.70;1.40;;;;;;;;;;4993146;28;20030;-44
2021/07/08 07:45:44;;;;;;;1.95;1.80;;;;;;;;;;4993154;28;20057;-44
2021/07/08 07:48:11;;;;;;;1.95;1.50;;;;;;;;;;4993396;28;20070;-45
2021/07/08 07:50:37;;;;;;;1.00;1.00;;;;;;;;;;4993122;28;20061;-44
2021/07/08 07:53:03;;;;;;;2.75;1.40;;;;;;;;;;4993054;28;20022;-44
2021/07/08 07:55:29;;;;;;;2.20;1.05;;;;;;;;;;4993323;28;20046;-44
2021/07/08 07:58:00;;;;;;;2.88;1.50;;;22.10;89.10;;;;;;4993225;28;20026;-44
2021/07/08 08:00:26;;;;;;;1.40;1.27;;;;;;;;;;4992922;28;20300;-47
2021/07/08 08:02:53;;;;;;;2.38;1.40;;;;;;;;;;4992997;28;20029;-45
2021/07/08 08:05:21;;;;;;;1.65;1.40;;;;;;;;;;4992673;28;20049;-45
2021/07/08 08:10:32;;;;;;;1.63;1.30;;;;;;;;;;4993252;28;20045;-44
2021/07/08 08:12:59;;;;;;;2.25;1.15;;;;;;;;;;4992875;28;20121;-45
2021/07/08 08:15:25;;;;;;;1.45;1.05;;;;;;;;;;4992952;28;20389;-44
2021/07/08 08:17:51;;;;;;;2.55;1.20;;;;;;;;;;4992586;28;20461;-45
2021/07/08 08:20:17;;;;;;;1.60;1.30;;;;;;;;;;4992958;28;20082;-45
2021/07/08 08:22:43;;;;;;;2.58;1.10;;;21.90;88.20;;;;;;4992750;28;20038;-44
2021/07/08 08:25:11;;;;;;;2.05;1.42;;;21.90;90.20;;;;;;4993177;28;20446;-44
2021/07/08 08:27:37;;;;;;;1.27;0.93;;;;;;;;;;4992854;28;20034;-43
2021/07/08 08:30:05;;;;;;;1.98;1.20;;;22.00;90.30;;;;;;4992949;28;20077;-43
2021/07/08 08:32:31;;;;;;;1.45;1.08;;;;;;;;;;4992926;28;20034;-44
2021/07/08 08:34:57;;;;;;;1.35;1.02;;;;;;;;;;4994787;28;20022;-45
2021/07/08 08:37:23;;;;;;;2.08;1.35;;;;;;;;;;4996311;28;20398;-45
2021/07/08 08:39:49;;;;;;;1.75;1.10;;;;;;;;;;4996396;28;20105;-47
2021/07/08 08:42:15;;;;;;;1.45;1.13;;;;;;;;;;4996096;28;20058;-46
2021/07/08 08:44:41;;;;;;;1.63;1.15;;;;;;;;;;4996289;28;20049;-46
2021/07/08 08:47:07;;;;;;;1.85;1.25;;;;;;;;;;4996023;28;20035;-45
2021/07/08 08:49:40;;;;;;;1.83;1.13;;;21.90;89.30;;;;;;4996240;28;20532;-44
2021/07/08 08:52:10;;;;;;;1.65;1.10;;;21.90;86.20;;;;;;4996254;28;20120;-45
2021/07/08 08:54:36;;;;;;;1.20;1.10;;;;;;;;;;4996235;28;20023;-44
2021/07/08 08:57:03;;;;;;;1.30;1.20;;;21.90;88.40;;;;;;4996099;28;20037;-44
2021/07/08 08:59:29;;;;;;;1.10;0.93;;;;;;;;;;4996439;28;20090;-44
2021/07/08 09:02:10;;;;;;;0.82;0.80;;;22.00;85.20;;;;;;4995903;28;20381;-43
2021/07/08 09:04:36;;;;;;;1.33;1.08;;;;;;;;;;4995533;28;20477;-43
2021/07/08 09:07:26;;;;;;;2.05;1.10;;;22.10;80.60;;;;;;4995899;28;20037;-44
2021/07/08 09:09:53;;;;;;;1.98;1.10;;;22.10;90.70;;;;;;4995624;28;20445;-44
2021/07/08 09:12:22;;;;;;;0.80;0.70;;;;;;;;;;4995677;28;20061;-43
2021/07/08 09:14:48;;;;;;;1.63;1.02;;;;;;;;;;4995729;28;20189;-43
2021/07/08 09:17:21;;;;;;;1.17;0.90;;;22.20;88.10;;;;;;4995371;28;20481;-43
2021/07/08 09:19:48;;;;;;;1.48;1.05;;;;;;;;;;4995316;28;20373;-44
2021/07/08 09:22:29;;;;;;;1.10;1.02;;;22.20;90.20;;;;;;4995713;28;20389;-45
2021/07/08 09:24:55;;;;;;;4.25;1.23;;;;;;;;;;4995492;28;20026;-43
2021/07/08 09:27:27;;;;;;;1.85;1.10;;;22.20;90.90;;;;;;4995624;28;20026;-44
2021/07/08 09:29:54;;;;;;;1.20;1.13;;;22.30;90.20;;;;;;4995367;28;20018;-43
2021/07/08 09:32:22;;;;;;;4.55;0.93;;;22.40;91.00;;;;;;4995172;28;20490;-44
2021/07/08 09:34:48;;;;;;;1.33;0.85;;;;;;;;;;4995550;28;20022;-43
2021/07/08 09:37:14;;;;;;;1.77;0.95;;;;;;;;;;4995119;28;20038;-43
2021/07/08 09:39:44;;;;;;;1.35;1.10;;;22.30;87.10;;;;;;4995045;28;20026;-43
2021/07/08 09:42:12;;;;;;;0.97;0.97;;;22.40;91.30;;;;;;4995051;28;20506;-43
2021/07/08 09:44:38;;;;;;;1.65;0.93;;;;;;;;;;4995013;28;20277;-43
2021/07/08 09:47:18;;;;;;;1.20;1.10;;;22.40;89.90;;;;;;4994137;28;20031;-43
2021/07/08 09:49:45;;;;;;;0.75;0.55;;;;;;;;;;4995275;28;20385;-43
2021/07/08 09:52:11;;;;;;;2.60;1.02;;;;;;;;;;4995232;28;20042;-43
2021/07/08 09:54:48;;;;;;;1.20;0.90;;;22.50;84.80;;;;;;4995266;28;20106;-45
2021/07/08 09:57:40;;;;;;;1.80;0.98;;;22.60;86.60;;;;;;4995258;28;20186;-43
2021/07/08 10:00:28;;;;;;;1.10;1.00;;;22.60;91.40;;;;;;4994872;28;20026;-45
2021/07/08 10:02:54;;;;;;;0.88;0.88;;;22.60;89.20;;;;;;4994967;28;20026;-47
2021/07/08 10:05:22;;;;;;;1.00;1.00;;;22.70;89.50;;;;;;4994521;28;20086;-45
2021/07/08 10:07:48;;;;;;;2.38;0.75;;;;;;;;;;4994493;28;20029;-46
2021/07/08 10:10:15;;;;;;;1.02;1.00;;;22.60;88.70;;;;;;4994804;28;20037;-46
2021/07/08 10:12:42;;;;;;;1.25;0.98;;;;;;;;;;4994800;28;20030;-47
2021/07/08 10:15:09;;;;;;;0.63;0.63;;;22.60;91.10;;;;;;4994766;28;20029;-44
2021/07/08 10:17:38;;;;;;;1.65;0.80;;;22.80;90.40;;;;;;4994406;28;20525;-44
2021/07/08 10:20:09;;;;;;;1.10;0.90;;;22.80;90.60;;;;;;4994659;28;20101;-43
2021/07/08 10:22:36;;;;;;;1.13;0.98;;;;;;;;;;4994458;28;20481;-43
2021/07/08 10:25:02;;;;;;;1.17;1.08;;;;;;;;;;4994455;28;20034;-43
2021/07/08 10:27:29;;;;;;;1.65;1.00;;;22.90;90.80;;;;;;4994159;28;20425;-44
2021/07/08 10:29:55;;;;;;;1.33;1.08;;;;;;;;;;4994412;28;20026;-44
2021/07/08 10:32:21;;;;;;;1.40;0.90;;;;;;;;;;4994379;28;20081;-44
2021/07/08 10:34:49;;;;;;;1.52;0.88;;;22.90;90.00;;;;;;4994282;28;20023;-43
2021/07/08 10:37:27;;;;;;;1.40;1.15;;;22.90;83.80;;;;;;4993910;28;20077;-43
2021/07/08 10:39:57;;;;;;;1.35;0.90;;;23.00;88.30;;;;;;4992597;28;20026;-42
2021/07/08 10:42:53;;;;;;;1.08;0.90;;;22.80;86.70;;;;;;4993899;28;20032;-43
2021/07/08 10:45:22;;;;;;;0.90;0.90;;;22.90;84.40;;;;;;4984479;28;20064;-43
2021/07/08 10:47:52;;;;;;;1.05;0.95;;;22.90;84.30;;;;;;4993808;28;20470;-44
2021/07/08 10:50:30;;;;;;;;;;;22.90;90.10;;;;;;4994177;28;20014;-43
2021/07/08 10:52:57;;;;;;;1.10;1.00;;;;;;;;;;4993518;28;19936;-42
2021/07/08 10:55:38;;;;;;;2.00;0.73;;;22.80;87.10;;;;;;4993748;28;20018;-42
2021/07/08 10:58:04;;;;;;;0.88;0.88;;;;;;;;;;4993433;28;20030;-42
2021/07/08 11:00:49;;;;;;;2.65;1.08;;;23.00;86.70;;;;;;4993865;28;20026;-42
2021/07/08 11:03:54;;;;;;;4.78;1.10;;;23.20;90.80;;;;;;4993498;28;20076;-43
2021/07/08 11:06:24;;;;;;;2.55;1.10;;;23.20;87.10;;;;;;4952328;29;20035;-43
2021/07/08 11:08:57;;;;;;;1.35;0.90;;;23.30;87.90;;;;;;4986960;28;20038;-44
2021/07/08 11:11:23;;;;;;;0.98;0.90;;;;;;;;;;4993453;28;20034;-44
2021/07/08 11:13:54;;;;;;;1.90;0.77;;;23.50;87.30;;;;;;4993346;28;20037;-44
2021/07/08 11:16:45;;;;;;;1.45;1.10;;;23.60;88.00;;;;;;4993517;28;20022;-43
2021/07/08 11:19:20;;;;;;;2.47;1.27;;;23.60;91.50;;;;;;4992986;28;20477;-43
2021/07/08 11:22:12;;;;;;;0.80;0.80;;;23.60;87.30;;;;;;4993537;28;20018;-44
2021/07/08 11:24:47;;;;;;;1.23;0.90;;;23.80;84.60;;;;;;4993623;28;20113;-44
2021/07/08 11:27:17;;;;;;;1.77;0.90;;;23.80;83.00;;;;;;4993312;28;20029;-43
2021/07/08 11:29:51;;;;;;;1.50;1.10;;;23.80;84.80;;;;;;4993206;28;20493;-43
2021/07/08 11:32:28;;;;;;;1.92;0.93;;;24.00;85.80;;;;;;4993169;28;20030;-42
2021/07/08 11:35:15;;;;;;;8.35;0.82;;;23.90;88.20;;;;;;4993346;28;20098;-43
2021/07/08 11:37:43;;;;;;;0.90;0.88;;;;;;;;;;4992258;28;20022;-43
2021/07/08 11:40:16;;;;;;;1.25;1.05;;;24.00;83.40;;;;;;4993206;28;20057;-42
2021/07/08 11:42:48;;;;;;;1.15;1.00;;;24.00;88.80;;;;;;4993205;28;20061;-44
2021/07/08 11:45:22;;;;;;;1.17;0.85;;;24.10;87.60;;;;;;4993231;28;20109;-42
2021/07/08 11:47:53;;;;;;;1.40;1.20;;;24.10;82.10;;;;;;4993293;28;20030;-43
2021/07/08 11:50:30;;;;;;;1.08;0.90;;;24.10;82.20;;;;;;4993305;28;20027;-45
2021/07/08 11:53:14;;;;;;;1.38;0.77;;;24.20;86.40;;;;;;4992910;28;20125;-45
2021/07/08 11:55:45;;;;;;;1.75;1.00;;;24.30;90.80;;;;;;4993104;28;20046;-44
2021/07/08 11:58:14;;;;;;;1.70;1.02;;;24.30;89.90;;;;;;4993084;28;20033;-45
2021/07/08 12:00:41;;;;;;;1.00;1.00;;;24.20;87.70;;;;;;4993321;28;20019;-46
2021/07/08 12:03:39;;;;;;;1.48;0.75;;;24.20;90.60;;;;;;4992903;28;20034;-45
2021/07/08 12:06:07;;;;;;;2.83;1.33;;;24.30;90.60;;;;;;4989726;28;20038;-43
2021/07/08 12:08:33;;;;;;;3.17;0.93;;;;;;;;;;4993248;28;20022;-43
2021/07/08 12:11:07;;;;;;;1.02;0.93;;;24.30;90.60;;;;;;4996703;28;20084;-43
2021/07/08 12:13:55;;;;;;;1.55;1.30;;;24.40;83.90;;;;;;4996947;28;20215;-45
2021/07/08 12:16:54;;;;;;;0.90;0.90;;;24.40;91.30;;;;;;4996911;28;20113;-45
2021/07/08 12:19:28;;;;;;;1.65;0.85;;;24.40;89.20;;;;;;4989056;28;20037;-42
2021/07/08 12:21:58;;;;;;;0.88;0.88;;;24.50;91.10;;;;;;4996612;28;20034;-42
2021/07/08 12:24:28;;;;;;;1.13;0.93;;;;;;;;;;4996757;28;20022;-44
2021/07/08 12:26:56;;;;;;;2.15;0.82;;;24.50;91.20;;;;;;4996536;28;20058;-41
2021/07/08 12:29:32;;;;;;;3.53;1.08;;;24.50;87.20;;;;;;4996551;28;20061;-41
2021/07/08 12:32:09;;;;;;;1.13;0.85;;;;;;;;;;4996281;28;20134;-42
2021/07/08 12:34:45;;;;;;;1.65;0.75;;;;;;;;;;4996267;28;20034;-42
2021/07/08 12:37:17;;;;;;;3.70;0.93;;;24.50;85.00;;;;;;4996344;28;20058;-41
2021/07/08 12:39:53;;;;;;;1.23;1.13;;;24.50;90.00;;;;;;4996417;28;20014;-41
2021/07/08 12:42:25;;;;;;;1.35;1.00;;;24.50;91.10;;;;;;4996177;28;20462;-42
2021/07/08 12:44:52;;;;;;;1.17;0.85;;;;;;;;;;4996223;28;20018;-42
2021/07/08 12:47:20;;;;;;;0.77;0.77;;;24.60;90.70;;;;;;4995921;28;20026;-43
2021/07/08 12:49:50;;;;;;;1.08;0.98;;;;;;;;;;4995876;28;20022;-43
2021/07/08 12:52:16;;;;;;;;;;;;;;;;;;4996289;28;20073;-45
2021/07/08 12:54:42;;;;;;;0.93;0.85;;;;;;;;;;4996273;28;20103;-40
2021/07/08 12:57:16;;;;;;;1.15;0.90;;;24.80;83.80;;;;;;4995836;28;20046;-40
2021/07/08 13:00:02;;;;;;;2.13;1.10;;;24.80;88.10;;;;;;4996034;28;20101;-41
2021/07/08 13:02:29;;;;;;;2.92;1.20;;;;;;;;;;4996269;28;20032;-40
2021/07/08 13:05:34;;;;;;;1.25;1.00;;;24.80;91.10;;;;;;4995405;28;20085;-40
2021/07/08 13:08:00;;;;;;;1.10;1.00;;;;;;;;;;4989861;28;20378;-40
2021/07/08 13:10:34;;;;;;;1.30;1.20;;;24.80;90.60;;;;;;4995699;28;20073;-41
2021/07/08 13:13:00;;;;;;;1.63;1.05;;;;;;;;;;4995400;28;20030;-41
2021/07/08 13:15:27;;;;;;;1.77;1.38;;;;;;;;;;4995674;28;20472;-42
2021/07/08 13:18:06;;;;;;;2.47;0.82;;;24.90;83.40;;;;;;4995316;28;20054;-41
2021/07/08 13:20:33;;;;;;;3.40;0.80;;;;;;;;;;4995085;28;20057;-41
2021/07/08 13:23:11;;;;;;;1.75;1.05;;;24.90;89.60;;;;;;4995489;28;20030;-41
2021/07/08 13:25:38;;;;;;;1.73;1.02;;;24.90;90.10;;;;;;4995249;28;20037;-40
2021/07/08 13:28:16;;;;;;;1.58;0.90;;;;;;;;;;4995150;28;20501;-41
2021/07/08 13:30:42;;;;;;;1.20;0.70;;;;;;;;;;4994951;28;20030;-40
2021/07/08 13:33:10;;;;;;;1.73;1.02;;;24.70;92.10;;;;;;4994864;28;20066;-40
